sensor_id;sensor_type;location;lat;lon;timestamp;pressure;altitude;pressure_sealevel;temperature;humidity
33913;BME280;20200;52.084;5.224;2023-03-23T00:01:12;153918.0;;;20.45;48.14
33913;BME280;20200;52.084;5.224;2023-03-23T00:02:49;153897.0;;;20.37;48.19
33913;BME280;20200;52.084;5.224;2023-03-23T00:04:25;153840.0;;;20.14;48.22
33913;BME280;20200;52.084;5.224;2023-03-23T00:07:38;153844.0;;;20.16;48.66
33913;BME280;20200;52.084;5.224;2023-03-23T00:09:15;153951.0;;;20.59;47.75
33913;BME280;20200;52.084;5.224;2023-03-23T00:10:51;153846.0;;;20.18;48.24
33913;BME280;20200;52.084;5.224;2023-03-23T00:14:08;153814.0;;;20.04;48.47
33913;BME280;20200;52.084;5.224;2023-03-23T00:15:46;153808.0;;;20.02;48.19
33913;BME280;20200;52.084;5.224;2023-03-23T00:17:22;153878.0;;;20.29;48.04
33913;BME280;20200;52.084;5.224;2023-03-23T00:19:00;154012.0;;;20.83;46.94
33913;BME280;20200;52.084;5.224;2023-03-23T00:22:16;153915.0;;;20.45;47.64
33913;BME280;20200;52.084;5.224;2023-03-23T00:23:53;153960.0;;;20.62;47.07
33913;BME280;20200;52.084;5.224;2023-03-23T00:25:29;154043.0;;;20.95;46.39
33913;BME280;20200;52.084;5.224;2023-03-23T00:28:41;154030.0;;;20.9;46.39
33913;BME280;20200;52.084;5.224;2023-03-23T00:30:18;153913.0;;;20.45;47.0
33913;BME280;20200;52.084;5.224;2023-03-23T00:31:53;153918.0;;;20.46;46.85
33913;BME280;20200;52.084;5.224;2023-03-23T00:33:32;153864.0;;;20.25;47.5
33913;BME280;20200;52.084;5.224;2023-03-23T00:36:46;153872.0;;;20.27;47.38
33913;BME280;20200;52.084;5.224;2023-03-23T00:38:23;153884.0;;;20.32;47.09
33913;BME280;20200;52.084;5.224;2023-03-23T00:40:00;153900.0;;;20.38;47.01
33913;BME280;20200;52.084;5.224;2023-03-23T00:43:13;153952.0;;;20.59;46.44
33913;BME280;20200;52.084;5.224;2023-03-23T00:44:49;153983.0;;;20.71;46.14
33913;BME280;20200;52.084;5.224;2023-03-23T00:46:25;153929.0;;;20.5;46.62
33913;BME280;20200;52.084;5.224;2023-03-23T00:49:38;153912.0;;;20.43;46.31
33913;BME280;20200;52.084;5.224;2023-03-23T00:51:14;153992.0;;;20.75;46.01
33913;BME280;20200;52.084;5.224;2023-03-23T00:52:50;153899.0;;;20.38;46.61
33913;BME280;20200;52.084;5.224;2023-03-23T00:54:27;153861.0;;;20.23;46.88
33913;BME280;20200;52.084;5.224;2023-03-23T00:57:41;153848.0;;;20.18;47.31
33913;BME280;20200;52.084;5.224;2023-03-23T00:59:17;153854.0;;;20.2;46.79
33913;BME280;20200;52.084;5.224;2023-03-23T01:00:54;153873.0;;;20.28;46.87
33913;BME280;20200;52.084;5.224;2023-03-23T01:04:08;154076.0;;;21.08;45.29
33913;BME280;20200;52.084;5.224;2023-03-23T01:05:45;153939.0;;;20.54;46.2
33913;BME280;20200;52.084;5.224;2023-03-23T01:07:22;153859.0;;;20.22;46.92
33913;BME280;20200;52.084;5.224;2023-03-23T01:10:35;153917.0;;;20.45;46.41
33913;BME280;20200;52.084;5.224;2023-03-23T01:12:11;153922.0;;;20.47;46.35
33913;BME280;20200;52.084;5.224;2023-03-23T01:13:47;153996.0;;;20.76;45.79
33913;BME280;20200;52.084;5.224;2023-03-23T01:15:23;154018.0;;;20.85;45.59
33913;BME280;20200;52.084;5.224;2023-03-23T01:18:36;153880.0;;;20.31;46.84
33913;BME280;20200;52.084;5.224;2023-03-23T01:20:14;153988.0;;;20.73;45.88
33913;BME280;20200;52.084;5.224;2023-03-23T01:21:51;154015.0;;;20.84;45.22
33913;BME280;20200;52.084;5.224;2023-03-23T01:25:03;154007.0;;;20.81;45.61
33913;BME280;20200;52.084;5.224;2023-03-23T01:26:40;153918.0;;;20.46;46.3
33913;BME280;20200;52.084;5.224;2023-03-23T01:28:16;153903.0;;;20.39;46.44
33913;BME280;20200;52.084;5.224;2023-03-23T01:31:28;153978.0;;;20.69;45.84
33913;BME280;20200;52.084;5.224;2023-03-23T01:33:04;153949.0;;;20.58;46.11
33913;BME280;20200;52.084;5.224;2023-03-23T01:34:40;153919.0;;;20.46;46.42
33913;BME280;20200;52.084;5.224;2023-03-23T01:36:19;153921.0;;;20.47;45.99
33913;BME280;20200;52.084;5.224;2023-03-23T01:39:33;154014.0;;;20.83;45.6
33913;BME280;20200;52.084;5.224;2023-03-23T01:41:11;154018.0;;;20.85;45.16
33913;BME280;20200;52.084;5.224;2023-03-23T01:42:50;153982.0;;;20.71;45.74
33913;BME280;20200;52.084;5.224;2023-03-23T01:47:01;153920.0;;;20.46;46.3
33913;BME280;20200;52.084;5.224;2023-03-23T01:50:16;153993.0;;;20.75;45.83
33913;BME280;20200;52.084;5.224;2023-03-23T01:51:55;153948.0;;;20.57;45.85
33913;BME280;20200;52.084;5.224;2023-03-23T01:53:38;153882.0;;;20.31;46.48
33913;BME280;20200;52.084;5.224;2023-03-23T01:55:17;153900.0;;;20.38;46.56
33913;BME280;20200;52.084;5.224;2023-03-23T01:58:35;153925.0;;;20.48;46.35
33913;BME280;20200;52.084;5.224;2023-03-23T02:00:14;153861.0;;;20.23;46.72
33913;BME280;20200;52.084;5.224;2023-03-23T02:01:51;153949.0;;;20.58;45.87
33913;BME280;20200;52.084;5.224;2023-03-23T02:03:29;154027.0;;;20.89;45.29
33913;BME280;20200;52.084;5.224;2023-03-23T02:06:49;154026.0;;;20.88;45.28
33913;BME280;20200;52.084;5.224;2023-03-23T02:08:27;153983.0;;;20.71;45.49
33913;BME280;20200;52.084;5.224;2023-03-23T02:10:05;153913.0;;;20.45;46.05
33913;BME280;20200;52.084;5.224;2023-03-23T02:13:18;153954.0;;;20.6;45.54
33913;BME280;20200;52.084;5.224;2023-03-23T02:14:55;153928.0;;;20.49;46.04
33913;BME280;20200;52.084;5.224;2023-03-23T02:16:35;153906.0;;;20.41;46.33
33913;BME280;20200;52.084;5.224;2023-03-23T02:18:26;153924.0;;;20.48;46.0
33913;BME280;20200;52.084;5.224;2023-03-23T02:20:18;153936.0;;;20.52;45.8
33913;BME280;20200;52.084;5.224;2023-03-23T02:25:41;153926.0;;;20.48;45.83
33913;BME280;20200;52.084;5.224;2023-03-23T02:27:48;154023.0;;;20.87;45.39
33913;BME280;20200;52.084;5.224;2023-03-23T02:30:15;154031.0;;;20.9;45.17
33913;BME280;20200;52.084;5.224;2023-03-23T02:32:11;153927.0;;;20.49;45.79
33913;BME280;20200;52.084;5.224;2023-03-23T02:33:53;154024.0;;;20.87;45.38
33913;BME280;20200;52.084;5.224;2023-03-23T02:35:35;153938.0;;;20.53;45.86
33913;BME280;20200;52.084;5.224;2023-03-23T02:37:16;153952.0;;;20.59;45.8
33913;BME280;20200;52.084;5.224;2023-03-23T02:40:42;153985.0;;;20.72;45.16
33913;BME280;20200;52.084;5.224;2023-03-23T02:42:24;153917.0;;;20.45;45.85
33913;BME280;20200;52.084;5.224;2023-03-23T02:44:03;154032.0;;;20.91;45.01
33913;BME280;20200;52.084;5.224;2023-03-23T02:45:42;154166.0;;;21.43;43.95
33913;BME280;20200;52.084;5.224;2023-03-23T02:49:01;154037.0;;;20.93;44.84
33913;BME280;20200;52.084;5.224;2023-03-23T02:50:42;154125.0;;;21.27;44.07
33913;BME280;20200;52.084;5.224;2023-03-23T02:52:24;154007.0;;;20.81;45.1
33913;BME280;20200;52.084;5.224;2023-03-23T02:54:04;154107.0;;;21.2;44.06
33913;BME280;20200;52.084;5.224;2023-03-23T02:57:20;154053.0;;;20.99;44.6
33913;BME280;20200;52.084;5.224;2023-03-23T02:58:58;154093.0;;;21.15;44.52
33913;BME280;20200;52.084;5.224;2023-03-23T03:00:35;154021.0;;;20.86;44.83
33913;BME280;20200;52.084;5.224;2023-03-23T03:02:14;153980.0;;;20.7;45.41
33913;BME280;20200;52.084;5.224;2023-03-23T03:05:37;153959.0;;;20.62;45.28
33913;BME280;20200;52.084;5.224;2023-03-23T03:09:29;153895.0;;;20.36;45.41
33913;BME280;20200;52.084;5.224;2023-03-23T03:11:12;154022.0;;;20.87;44.75
33913;BME280;20200;52.084;5.224;2023-03-23T03:12:54;153913.0;;;20.45;45.29
33913;BME280;20200;52.084;5.224;2023-03-23T03:16:23;153953.0;;;20.59;45.0
33913;BME280;20200;52.084;5.224;2023-03-23T03:18:08;153944.0;;;20.56;44.98
33913;BME280;20200;52.084;5.224;2023-03-23T03:19:49;153927.0;;;20.49;44.76
33913;BME280;20200;52.084;5.224;2023-03-23T03:21:31;153891.0;;;20.36;45.28
33913;BME280;20200;52.084;5.224;2023-03-23T03:23:11;154006.0;;;20.8;44.51
33913;BME280;20200;52.084;5.224;2023-03-23T03:26:28;153993.0;;;20.75;44.77
33913;BME280;20200;52.084;5.224;2023-03-23T03:28:06;154012.0;;;20.82;44.45
33913;BME280;20200;52.084;5.224;2023-03-23T03:29:44;153976.0;;;20.68;44.7
33913;BME280;20200;52.084;5.224;2023-03-23T03:31:24;154069.0;;;21.05;43.83
33913;BME280;20200;52.084;5.224;2023-03-23T03:34:40;153991.0;;;20.74;44.26
33913;BME280;20200;52.084;5.224;2023-03-23T03:36:19;153877.0;;;20.29;45.46
33913;BME280;20200;52.084;5.224;2023-03-23T03:37:57;153888.0;;;20.34;45.69
33913;BME280;20200;52.084;5.224;2023-03-23T03:39:41;153976.0;;;20.68;44.9
33913;BME280;20200;52.084;5.224;2023-03-23T03:42:55;153969.0;;;20.65;44.75
33913;BME280;20200;52.084;5.224;2023-03-23T03:44:31;153933.0;;;20.51;45.11
33913;BME280;20200;52.084;5.224;2023-03-23T03:46:08;153883.0;;;20.32;45.52
33913;BME280;20200;52.084;5.224;2023-03-23T03:49:21;154006.0;;;20.8;44.6
33913;BME280;20200;52.084;5.224;2023-03-23T03:50:57;153921.0;;;20.47;44.75
33913;BME280;20200;52.084;5.224;2023-03-23T03:52:34;154026.0;;;20.88;44.33
33913;BME280;20200;52.084;5.224;2023-03-23T03:55:46;153960.0;;;20.62;44.61
33913;BME280;20200;52.084;5.224;2023-03-23T03:57:23;153775.0;;;19.89;46.35
33913;BME280;20200;52.084;5.224;2023-03-23T03:58:59;153951.0;;;20.58;45.06
33913;BME280;20200;52.084;5.224;2023-03-23T04:02:11;153948.0;;;20.57;45.18
33913;BME280;20200;52.084;5.224;2023-03-23T04:03:47;153956.0;;;20.61;44.79
33913;BME280;20200;52.084;5.224;2023-03-23T04:05:23;154003.0;;;20.79;44.54
33913;BME280;20200;52.084;5.224;2023-03-23T04:06:59;153896.0;;;20.37;45.08
33913;BME280;20200;52.084;5.224;2023-03-23T04:10:12;154074.0;;;21.07;43.99
33913;BME280;20200;52.084;5.224;2023-03-23T04:11:49;153933.0;;;20.51;44.77
33913;BME280;20200;52.084;5.224;2023-03-23T04:13:25;153923.0;;;20.47;44.88
33913;BME280;20200;52.084;5.224;2023-03-23T04:16:38;154018.0;;;20.85;43.9
33913;BME280;20200;52.084;5.224;2023-03-23T04:18:15;154008.0;;;20.81;43.73
33913;BME280;20200;52.084;5.224;2023-03-23T04:19:52;154080.0;;;21.1;43.4
33913;BME280;20200;52.084;5.224;2023-03-23T04:23:05;154018.0;;;20.85;44.0
33913;BME280;20200;52.084;5.224;2023-03-23T04:24:42;154021.0;;;20.86;43.58
33913;BME280;20200;52.084;5.224;2023-03-23T04:26:18;153977.0;;;20.69;43.83
33913;BME280;20200;52.084;5.224;2023-03-23T04:27:54;154051.0;;;20.98;43.4
33913;BME280;20200;52.084;5.224;2023-03-23T04:31:06;153963.0;;;20.63;43.89
33913;BME280;20200;52.084;5.224;2023-03-23T04:32:42;154030.0;;;20.9;43.36
33913;BME280;20200;52.084;5.224;2023-03-23T04:34:18;153792.0;;;19.95;44.89
33913;BME280;20200;52.084;5.224;2023-03-23T04:37:36;153744.0;;;19.77;45.42
33913;BME280;20200;52.084;5.224;2023-03-23T04:39:14;154031.0;;;20.9;43.31
33913;BME280;20200;52.084;5.224;2023-03-23T04:40:52;153863.0;;;20.23;44.55
33913;BME280;20200;52.084;5.224;2023-03-23T04:42:29;153932.0;;;20.51;43.56
33913;BME280;20200;52.084;5.224;2023-03-23T04:45:43;154006.0;;;20.8;43.44
33913;BME280;20200;52.084;5.224;2023-03-23T04:47:19;153990.0;;;20.74;43.39
33913;BME280;20200;52.084;5.224;2023-03-23T04:48:56;153994.0;;;20.75;42.85
33913;BME280;20200;52.084;5.224;2023-03-23T04:52:09;153954.0;;;20.6;43.87
33913;BME280;20200;52.084;5.224;2023-03-23T04:53:45;153951.0;;;20.59;43.71
33913;BME280;20200;52.084;5.224;2023-03-23T04:55:21;153945.0;;;20.56;43.33
33913;BME280;20200;52.084;5.224;2023-03-23T04:58:33;154041.0;;;20.94;43.64
33913;BME280;20200;52.084;5.224;2023-03-23T05:00:11;153854.0;;;20.2;45.19
33913;BME280;20200;52.084;5.224;2023-03-23T05:01:47;153841.0;;;20.16;45.42
33913;BME280;20200;52.084;5.224;2023-03-23T05:03:23;153925.0;;;20.48;44.7
33913;BME280;20200;52.084;5.224;2023-03-23T05:06:35;153910.0;;;20.43;44.37
33913;BME280;20200;52.084;5.224;2023-03-23T05:08:11;154046.0;;;20.96;43.59
33913;BME280;20200;52.084;5.224;2023-03-23T05:09:47;153967.0;;;20.65;44.08
33913;BME280;20200;52.084;5.224;2023-03-23T05:13:00;153814.0;;;20.04;45.57
33913;BME280;20200;52.084;5.224;2023-03-23T05:14:40;153904.0;;;20.41;45.41
33913;BME280;20200;52.084;5.224;2023-03-23T05:16:16;153823.0;;;20.09;45.89
33913;BME280;20200;52.084;5.224;2023-03-23T05:19:28;153870.0;;;20.27;45.69
33913;BME280;20200;52.084;5.224;2023-03-23T05:21:04;153942.0;;;20.55;45.0
33913;BME280;20200;52.084;5.224;2023-03-23T05:22:40;153911.0;;;20.43;45.24
33913;BME280;20200;52.084;5.224;2023-03-23T05:24:17;153773.0;;;19.88;46.21
33913;BME280;20200;52.084;5.224;2023-03-23T05:27:31;153906.0;;;20.41;45.63
33913;BME280;20200;52.084;5.224;2023-03-23T05:29:07;153674.0;;;19.5;47.08
33913;BME280;20200;52.084;5.224;2023-03-23T05:30:43;153887.0;;;20.34;46.62
33913;BME280;20200;52.084;5.224;2023-03-23T05:33:55;153785.0;;;19.93;46.83
33913;BME280;20200;52.084;5.224;2023-03-23T05:35:31;153905.0;;;20.41;46.58
33913;BME280;20200;52.084;5.224;2023-03-23T05:37:09;153875.0;;;20.28;46.49
33913;BME280;20200;52.084;5.224;2023-03-23T05:40:21;153917.0;;;20.45;46.94
33913;BME280;20200;52.084;5.224;2023-03-23T05:41:57;153906.0;;;20.41;47.22
33913;BME280;20200;52.084;5.224;2023-03-23T05:43:34;153965.0;;;20.64;46.2
33913;BME280;20200;52.084;5.224;2023-03-23T05:46:47;153994.0;;;20.75;46.37
33913;BME280;20200;52.084;5.224;2023-03-23T05:48:24;153835.0;;;20.12;47.96
33913;BME280;20200;52.084;5.224;2023-03-23T05:50:01;153979.0;;;20.7;46.69
33913;BME280;20200;52.084;5.224;2023-03-23T05:51:37;154087.0;;;21.12;45.62
33913;BME280;20200;52.084;5.224;2023-03-23T05:54:49;154019.0;;;20.85;46.42
33913;BME280;20200;52.084;5.224;2023-03-23T05:56:25;154019.0;;;20.85;46.28
33913;BME280;20200;52.084;5.224;2023-03-23T05:58:01;153993.0;;;20.75;46.72
33913;BME280;20200;52.084;5.224;2023-03-23T06:01:14;154028.0;;;20.89;46.5
33913;BME280;20200;52.084;5.224;2023-03-23T06:02:54;154103.0;;;21.19;46.19
33913;BME280;20200;52.084;5.224;2023-03-23T06:04:30;153947.0;;;20.57;47.37
33913;BME280;20200;52.084;5.224;2023-03-23T06:06:09;153832.0;;;20.11;48.75
33913;BME280;20200;52.084;5.224;2023-03-23T06:09:22;154017.0;;;20.85;47.17
33913;BME280;20200;52.084;5.224;2023-03-23T06:10:58;153891.0;;;20.36;47.92
33913;BME280;20200;52.084;5.224;2023-03-23T06:12:35;153932.0;;;20.51;48.29
33913;BME280;20200;52.084;5.224;2023-03-23T06:15:48;153843.0;;;20.16;49.07
33913;BME280;20200;52.084;5.224;2023-03-23T06:17:24;154040.0;;;20.94;47.49
33913;BME280;20200;52.084;5.224;2023-03-23T06:19:00;153927.0;;;20.49;48.41
33913;BME280;20200;52.084;5.224;2023-03-23T06:22:12;153859.0;;;20.22;49.13
33913;BME280;20200;52.084;5.224;2023-03-23T06:23:49;153846.0;;;20.18;49.39
33913;BME280;20200;52.084;5.224;2023-03-23T06:25:25;153962.0;;;20.63;48.14
33913;BME280;20200;52.084;5.224;2023-03-23T06:28:38;153841.0;;;20.16;49.09
33913;BME280;20200;52.084;5.224;2023-03-23T06:30:14;154014.0;;;20.83;47.83
33913;BME280;20200;52.084;5.224;2023-03-23T06:31:52;154005.0;;;20.8;47.85
33913;BME280;20200;52.084;5.224;2023-03-23T06:33:32;153961.0;;;20.63;48.28
33913;BME280;20200;52.084;5.224;2023-03-23T06:36:46;153911.0;;;20.43;48.59
33913;BME280;20200;52.084;5.224;2023-03-23T06:38:23;153990.0;;;20.74;47.68
33913;BME280;20200;52.084;5.224;2023-03-23T06:39:59;153937.0;;;20.53;48.08
33913;BME280;20200;52.084;5.224;2023-03-23T06:43:13;154003.0;;;20.79;47.56
33913;BME280;20200;52.084;5.224;2023-03-23T06:44:49;154019.0;;;20.85;47.48
33913;BME280;20200;52.084;5.224;2023-03-23T06:46:25;154204.0;;;21.59;46.0
33913;BME280;20200;52.084;5.224;2023-03-23T06:48:01;154031.0;;;20.9;46.69
33913;BME280;20200;52.084;5.224;2023-03-23T06:51:13;153994.0;;;20.76;47.69
33913;BME280;20200;52.084;5.224;2023-03-23T06:52:50;154060.0;;;21.02;46.88
33913;BME280;20200;52.084;5.224;2023-03-23T06:54:27;154125.0;;;21.27;46.63
33913;BME280;20200;52.084;5.224;2023-03-23T06:57:39;154031.0;;;20.9;46.94
33913;BME280;20200;52.084;5.224;2023-03-23T06:59:15;154000.0;;;20.78;47.47
33913;BME280;20200;52.084;5.224;2023-03-23T07:00:53;154131.0;;;21.3;46.55
33913;BME280;20200;52.084;5.224;2023-03-23T07:04:05;154064.0;;;21.03;47.09
33913;BME280;20200;52.084;5.224;2023-03-23T07:05:45;153748.0;;;19.78;49.81
33913;BME280;20200;52.084;5.224;2023-03-23T07:07:22;154015.0;;;20.84;47.53
33913;BME280;20200;52.084;5.224;2023-03-23T07:08:58;153740.0;;;19.75;50.26
33913;BME280;20200;52.084;5.224;2023-03-23T07:12:10;153779.0;;;19.91;50.06
33913;BME280;20200;52.084;5.224;2023-03-23T07:13:46;153836.0;;;20.13;49.37
33913;BME280;20200;52.084;5.224;2023-03-23T07:15:23;153802.0;;;20.0;49.73
33913;BME280;20200;52.084;5.224;2023-03-23T07:18:35;153850.0;;;20.2;48.97
33913;BME280;20200;52.084;5.224;2023-03-23T07:20:12;153690.0;;;19.55;50.31
33913;BME280;20200;52.084;5.224;2023-03-23T07:21:48;153657.0;;;19.43;50.27
33913;BME280;20200;52.084;5.224;2023-03-23T07:25:00;153602.0;;;19.2;50.1
33913;BME280;20200;52.084;5.224;2023-03-23T07:26:36;153703.0;;;19.61;49.93
33913;BME280;20200;52.084;5.224;2023-03-23T07:28:12;153782.0;;;19.93;49.03
33913;BME280;20200;52.084;5.224;2023-03-23T07:29:49;153812.0;;;20.04;48.95
33913;BME280;20200;52.084;5.224;2023-03-23T07:33:04;153775.0;;;19.89;49.08
33913;BME280;20200;52.084;5.224;2023-03-23T07:34:41;153812.0;;;20.04;48.61
33913;BME280;20200;52.084;5.224;2023-03-23T07:36:17;153784.0;;;19.93;48.44
33913;BME280;20200;52.084;5.224;2023-03-23T07:39:30;153763.0;;;19.84;48.52
33913;BME280;20200;52.084;5.224;2023-03-23T07:41:07;153861.0;;;20.23;48.2
33913;BME280;20200;52.084;5.224;2023-03-23T07:42:43;153796.0;;;19.97;48.41
33913;BME280;20200;52.084;5.224;2023-03-23T07:45:58;153818.0;;;20.06;48.51
33913;BME280;20200;52.084;5.224;2023-03-23T07:47:34;153874.0;;;20.28;47.75
33913;BME280;20200;52.084;5.224;2023-03-23T07:49:10;153957.0;;;20.61;47.13
33913;BME280;20200;52.084;5.224;2023-03-23T07:50:46;153920.0;;;20.46;47.75
33913;BME280;20200;52.084;5.224;2023-03-23T07:53:59;154013.0;;;20.83;46.98
33913;BME280;20200;52.084;5.224;2023-03-23T07:55:35;153812.0;;;20.03;47.78
33913;BME280;20200;52.084;5.224;2023-03-23T07:57:11;154017.0;;;20.85;47.07
33913;BME280;20200;52.084;5.224;2023-03-23T08:00:25;154055.0;;;21.0;46.54
33913;BME280;20200;52.084;5.224;2023-03-23T08:02:02;153828.0;;;20.11;48.43
33913;BME280;20200;52.084;5.224;2023-03-23T08:03:38;153830.0;;;20.11;48.01
33913;BME280;20200;52.084;5.224;2023-03-23T08:06:51;153702.0;;;19.61;48.81
33913;BME280;20200;52.084;5.224;2023-03-23T08:08:27;153793.0;;;19.96;48.35
33913;BME280;20200;52.084;5.224;2023-03-23T08:10:04;153677.0;;;19.5;48.6
33913;BME280;20200;52.084;5.224;2023-03-23T08:11:40;153798.0;;;19.98;47.9
33913;BME280;20200;52.084;5.224;2023-03-23T08:14:54;153859.0;;;20.22;47.81
33913;BME280;20200;52.084;5.224;2023-03-23T08:16:30;153805.0;;;20.0;48.01
33913;BME280;20200;52.084;5.224;2023-03-23T08:18:06;153890.0;;;20.34;47.62
33913;BME280;20200;52.084;5.224;2023-03-23T08:21:19;153757.0;;;19.82;47.91
33913;BME280;20200;52.084;5.224;2023-03-23T08:22:56;153705.0;;;19.61;49.02
33913;BME280;20200;52.084;5.224;2023-03-23T08:24:33;153983.0;;;20.71;47.39
33913;BME280;20200;52.084;5.224;2023-03-23T08:27:46;153864.0;;;20.25;47.71
33913;BME280;20200;52.084;5.224;2023-03-23T08:29:23;153949.0;;;20.58;47.63
33913;BME280;20200;52.084;5.224;2023-03-23T08:30:59;153839.0;;;20.14;48.3
33913;BME280;20200;52.084;5.224;2023-03-23T08:32:36;153972.0;;;20.67;47.7
33913;BME280;20200;52.084;5.224;2023-03-23T08:35:55;154154.0;;;21.39;46.17
33913;BME280;20200;52.084;5.224;2023-03-23T08:37:32;154094.0;;;21.15;47.06
33913;BME280;20200;52.084;5.224;2023-03-23T08:39:08;153870.0;;;20.27;47.82
33913;BME280;20200;52.084;5.224;2023-03-23T08:42:20;153958.0;;;20.61;47.0
33913;BME280;20200;52.084;5.224;2023-03-23T08:43:56;153879.0;;;20.3;47.48
33913;BME280;20200;52.084;5.224;2023-03-23T08:45:32;153970.0;;;20.66;47.47
33913;BME280;20200;52.084;5.224;2023-03-23T08:48:45;153920.0;;;20.46;47.95
33913;BME280;20200;52.084;5.224;2023-03-23T08:50:24;153809.0;;;20.02;48.49
33913;BME280;20200;52.084;5.224;2023-03-23T08:52:02;153897.0;;;20.37;47.27
33913;BME280;20200;52.084;5.224;2023-03-23T08:53:38;153974.0;;;20.67;47.38
33913;BME280;20200;52.084;5.224;2023-03-23T08:56:52;153874.0;;;20.28;47.43
33913;BME280;20200;52.084;5.224;2023-03-23T08:58:29;153900.0;;;20.38;47.6
33913;BME280;20200;52.084;5.224;2023-03-23T09:00:08;154031.0;;;20.9;46.52
33913;BME280;20200;52.084;5.224;2023-03-23T09:03:21;153939.0;;;20.54;46.97
33913;BME280;20200;52.084;5.224;2023-03-23T09:04:57;153908.0;;;20.41;47.6
33913;BME280;20200;52.084;5.224;2023-03-23T09:06:34;153914.0;;;20.45;47.29
33913;BME280;20200;52.084;5.224;2023-03-23T09:08:10;153851.0;;;20.2;47.69
33913;BME280;20200;52.084;5.224;2023-03-23T09:11:23;153929.0;;;20.5;46.45
33913;BME280;20200;52.084;5.224;2023-03-23T09:12:59;153931.0;;;20.5;46.86
33913;BME280;20200;52.084;5.224;2023-03-23T09:14:36;153956.0;;;20.61;45.84
33913;BME280;20200;52.084;5.224;2023-03-23T09:17:51;153948.0;;;20.57;46.37
33913;BME280;20200;52.084;5.224;2023-03-23T09:19:28;154025.0;;;20.88;45.44
33913;BME280;20200;52.084;5.224;2023-03-23T09:21:05;153974.0;;;20.68;44.71
33913;BME280;20200;52.084;5.224;2023-03-23T09:24:21;154019.0;;;20.85;44.98
33913;BME280;20200;52.084;5.224;2023-03-23T09:26:00;153805.0;;;20.0;45.47
33913;BME280;20200;52.084;5.224;2023-03-23T09:27:37;154004.0;;;20.79;44.82
33913;BME280;20200;52.084;5.224;2023-03-23T09:29:14;154025.0;;;20.88;44.84
33913;BME280;20200;52.084;5.224;2023-03-23T09:32:26;153983.0;;;20.71;44.31
33913;BME280;20200;52.084;5.224;2023-03-23T09:34:02;153904.0;;;20.41;44.62
33913;BME280;20200;52.084;5.224;2023-03-23T09:35:38;154080.0;;;21.09;44.0
33913;BME280;20200;52.084;5.224;2023-03-23T09:38:52;153942.0;;;20.55;44.28
33913;BME280;20200;52.084;5.224;2023-03-23T09:40:33;153916.0;;;20.45;44.23
33913;BME280;20200;52.084;5.224;2023-03-23T09:42:30;154116.0;;;21.24;43.12
33913;BME280;20200;52.084;5.224;2023-03-23T09:44:19;154179.0;;;21.49;42.35
33913;BME280;20200;52.084;5.224;2023-03-23T09:46:08;154213.0;;;21.62;42.43
33913;BME280;20200;52.084;5.224;2023-03-23T09:48:15;154100.0;;;21.18;42.33
33913;BME280;20200;52.084;5.224;2023-03-23T09:50:10;153913.0;;;20.43;42.88
33913;BME280;20200;52.084;5.224;2023-03-23T09:53:33;154148.0;;;21.36;43.04
33913;BME280;20200;52.084;5.224;2023-03-23T09:55:15;154035.0;;;20.92;42.77
33913;BME280;20200;52.084;5.224;2023-03-23T09:56:54;154031.0;;;20.9;41.33
33913;BME280;20200;52.084;5.224;2023-03-23T09:58:36;154195.0;;;21.55;41.43
33913;BME280;20200;52.084;5.224;2023-03-23T10:02:18;154146.0;;;21.36;41.71
33913;BME280;20200;52.084;5.224;2023-03-23T10:04:01;154165.0;;;21.43;40.65
33913;BME280;20200;52.084;5.224;2023-03-23T10:05:53;154075.0;;;21.07;41.52
33913;BME280;20200;52.084;5.224;2023-03-23T10:07:30;153906.0;;;20.41;41.81
33913;BME280;20200;52.084;5.224;2023-03-23T10:09:08;153894.0;;;20.36;41.5
33913;BME280;20200;52.084;5.224;2023-03-23T10:12:42;154000.0;;;20.78;40.81
33913;BME280;20200;52.084;5.224;2023-03-23T10:14:32;154093.0;;;21.14;41.06
33913;BME280;20200;52.084;5.224;2023-03-23T10:16:19;154204.0;;;21.59;40.0
33913;BME280;20200;52.084;5.224;2023-03-23T10:18:10;154159.0;;;21.41;39.83
33913;BME280;20200;52.084;5.224;2023-03-23T10:19:53;154121.0;;;21.26;40.17
33913;BME280;20200;52.084;5.224;2023-03-23T10:21:52;154237.0;;;21.71;40.21
33913;BME280;20200;52.084;5.224;2023-03-23T10:23:45;154161.0;;;21.42;39.89
33913;BME280;20200;52.084;5.224;2023-03-23T10:27:17;154167.0;;;21.44;40.14
33913;BME280;20200;52.084;5.224;2023-03-23T10:28:58;154111.0;;;21.22;39.64
33913;BME280;20200;52.084;5.224;2023-03-23T10:30:39;154140.0;;;21.33;40.32
33913;BME280;20200;52.084;5.224;2023-03-23T10:32:18;154037.0;;;20.92;40.54
33913;BME280;20200;52.084;5.224;2023-03-23T10:34:02;154192.0;;;21.54;40.11
33913;BME280;20200;52.084;5.224;2023-03-23T10:37:37;154179.0;;;21.49;39.96
33913;BME280;20200;52.084;5.224;2023-03-23T10:39:18;154163.0;;;21.42;39.04
33913;BME280;20200;52.084;5.224;2023-03-23T10:41:00;154282.0;;;21.89;39.32
33913;BME280;20200;52.084;5.224;2023-03-23T10:42:41;154379.0;;;22.28;38.79
33913;BME280;20200;52.084;5.224;2023-03-23T10:46:01;154344.0;;;22.14;38.36
33913;BME280;20200;52.084;5.224;2023-03-23T10:47:51;154363.0;;;22.21;39.06
33913;BME280;20200;52.084;5.224;2023-03-23T10:49:35;154212.0;;;21.62;39.42
33913;BME280;20200;52.084;5.224;2023-03-23T10:51:17;154290.0;;;21.93;38.37
33913;BME280;20200;52.084;5.224;2023-03-23T10:52:57;154365.0;;;22.22;38.15
33913;BME280;20200;52.084;5.224;2023-03-23T10:56:23;154341.0;;;22.13;37.46
33913;BME280;20200;52.084;5.224;2023-03-23T10:58:03;154282.0;;;21.9;37.4
33913;BME280;20200;52.084;5.224;2023-03-23T10:59:41;154256.0;;;21.79;37.57
33913;BME280;20200;52.084;5.224;2023-03-23T11:01:19;154203.0;;;21.58;38.12
33913;BME280;20200;52.084;5.224;2023-03-23T11:04:37;154048.0;;;20.97;37.83
33913;BME280;20200;52.084;5.224;2023-03-23T11:06:20;154235.0;;;21.71;37.35
33913;BME280;20200;52.084;5.224;2023-03-23T11:07:59;154353.0;;;22.18;37.08
33913;BME280;20200;52.084;5.224;2023-03-23T11:09:37;154411.0;;;22.4;36.49
33913;BME280;20200;52.084;5.224;2023-03-23T11:12:57;154416.0;;;22.42;36.82